sensor_id;sensor_type;location;lat;lon;timestamp;pressure;altitude;pressure_sealevel;temperature;humidity
62436;BME280;48480;50.252;18.848;2024-03-02T00:01:26;98003.23;;;9.51;92.10
62436;BME280;48480;50.252;18.848;2024-03-02T00:04:10;97996.84;;;9.55;91.64
62436;BME280;48480;50.252;18.848;2024-03-02T00:06:55;97995.34;;;9.60;91.29
62436;BME280;48480;50.252;18.848;2024-03-02T00:09:39;97996.16;;;9.59;90.69
62436;BME280;48480;50.252;18.848;2024-03-02T00:12:23;97994.18;;;9.54;90.50
62436;BME280;48480;50.252;18.848;2024-03-02T00:18:30;97987.85;;;9.30;90.94
62436;BME280;48480;50.252;18.848;2024-03-02T00:21:14;97989.14;;;9.28;91.10
62436;BME280;48480;50.252;18.848;2024-03-02T00:24:01;97987.51;;;9.27;90.96
62436;BME280;48480;50.252;18.848;2024-03-02T00:26:51;97996.54;;;9.30;90.61
62436;BME280;48480;50.252;18.848;2024-03-02T00:29:35;98002.55;;;9.32;90.57
62436;BME280;48480;50.252;18.848;2024-03-02T00:32:19;98005.70;;;9.34;90.61
62436;BME280;48480;50.252;18.848;2024-03-02T00:35:05;98003.59;;;9.35;90.65
62436;BME280;48480;50.252;18.848;2024-03-02T00:37:49;98002.29;;;9.34;90.54
62436;BME280;48480;50.252;18.848;2024-03-02T00:40:33;98003.31;;;9.29;90.40
62436;BME280;48480;50.252;18.848;2024-03-02T00:46:04;97996.27;;;9.18;90.68
62436;BME280;48480;50.252;18.848;2024-03-02T00:48:52;97999.86;;;9.14;90.56
62436;BME280;48480;50.252;18.848;2024-03-02T00:51:38;98001.60;;;9.08;90.13
62436;BME280;48480;50.252;18.848;2024-03-02T00:54:26;98000.05;;;9.03;90.18
62436;BME280;48480;50.252;18.848;2024-03-02T00:57:10;97994.71;;;9.00;90.42
62436;BME280;48480;50.252;18.848;2024-03-02T00:59:56;97994.41;;;9.01;90.81
62436;BME280;48480;50.252;18.848;2024-03-02T01:02:40;97993.52;;;9.00;90.65
62436;BME280;48480;50.252;18.848;2024-03-02T01:05:25;97990.82;;;8.92;90.32
62436;BME280;48480;50.252;18.848;2024-03-02T01:08:10;97990.81;;;8.84;90.31
62436;BME280;48480;50.252;18.848;2024-03-02T01:10:54;97990.92;;;8.75;90.22
62436;BME280;48480;50.252;18.848;2024-03-02T01:13:38;97989.63;;;8.77;90.23
62436;BME280;48480;50.252;18.848;2024-03-02T01:16:22;97987.83;;;8.78;89.89
62436;BME280;48480;50.252;18.848;2024-03-02T01:19:06;97984.24;;;8.73;89.61
62436;BME280;48480;50.252;18.848;2024-03-02T01:21:50;97982.41;;;8.65;89.85
62436;BME280;48480;50.252;18.848;2024-03-02T01:24:34;97980.67;;;8.62;89.99
62436;BME280;48480;50.252;18.848;2024-03-02T01:27:18;97980.02;;;8.57;89.92
62436;BME280;48480;50.252;18.848;2024-03-02T01:30:02;97977.98;;;8.57;90.04
62436;BME280;48480;50.252;18.848;2024-03-02T01:32:47;97969.26;;;8.53;89.77
62436;BME280;48480;50.252;18.848;2024-03-02T01:35:31;97962.26;;;8.43;89.99
62436;BME280;48480;50.252;18.848;2024-03-02T01:38:15;97964.27;;;8.32;90.46
62436;BME280;48480;50.252;18.848;2024-03-02T01:41:00;97965.79;;;8.25;90.71
62436;BME280;48480;50.252;18.848;2024-03-02T01:43:44;97963.23;;;8.19;90.88
62436;BME280;48480;50.252;18.848;2024-03-02T01:46:28;97956.13;;;8.15;90.91
62436;BME280;48480;50.252;18.848;2024-03-02T01:49:12;97957.85;;;8.13;91.04
62436;BME280;48480;50.252;18.848;2024-03-02T01:51:57;97953.52;;;8.17;91.29
62436;BME280;48480;50.252;18.848;2024-03-02T01:54:42;97955.70;;;8.16;91.10
62436;BME280;48480;50.252;18.848;2024-03-02T01:57:25;97954.83;;;8.11;91.36
62436;BME280;48480;50.252;18.848;2024-03-02T02:00:10;97958.08;;;8.05;91.43
62436;BME280;48480;50.252;18.848;2024-03-02T02:02:54;97953.11;;;8.03;91.70
62436;BME280;48480;50.252;18.848;2024-03-02T02:05:38;97948.98;;;8.08;91.69
62436;BME280;48480;50.252;18.848;2024-03-02T02:08:22;97948.32;;;8.15;91.56
62436;BME280;48480;50.252;18.848;2024-03-02T02:11:06;97944.89;;;8.24;91.55
62436;BME280;48480;50.252;18.848;2024-03-02T02:13:50;97946.73;;;8.27;91.42
62436;BME280;48480;50.252;18.848;2024-03-02T02:16:34;97942.43;;;8.25;91.40
62436;BME280;48480;50.252;18.848;2024-03-02T02:19:18;97938.70;;;8.24;91.39
62436;BME280;48480;50.252;18.848;2024-03-02T02:22:01;97939.34;;;8.24;91.58
62436;BME280;48480;50.252;18.848;2024-03-02T02:24:45;97937.82;;;8.26;91.42
62436;BME280;48480;50.252;18.848;2024-03-02T02:27:30;97935.91;;;8.33;91.14
62436;BME280;48480;50.252;18.848;2024-03-02T02:30:21;97934.71;;;8.38;90.83
62436;BME280;48480;50.252;18.848;2024-03-02T02:33:06;97932.38;;;8.46;90.60
62436;BME280;48480;50.252;18.848;2024-03-02T02:35:49;97931.45;;;8.49;90.38
62436;BME280;48480;50.252;18.848;2024-03-02T02:38:38;97931.35;;;8.48;90.08
62436;BME280;48480;50.252;18.848;2024-03-02T02:41:23;97933.77;;;8.46;90.25
62436;BME280;48480;50.252;18.848;2024-03-02T02:44:07;97934.34;;;8.43;90.31
62436;BME280;48480;50.252;18.848;2024-03-02T02:46:51;97934.38;;;8.44;90.25
62436;BME280;48480;50.252;18.848;2024-03-02T02:49:35;97939.78;;;8.44;89.85
62436;BME280;48480;50.252;18.848;2024-03-02T02:52:20;97943.19;;;8.46;89.78
62436;BME280;48480;50.252;18.848;2024-03-02T02:55:06;97942.62;;;8.47;89.71
62436;BME280;48480;50.252;18.848;2024-03-02T02:57:50;97942.81;;;8.48;89.94
62436;BME280;48480;50.252;18.848;2024-03-02T03:00:34;97944.86;;;8.50;90.05
62436;BME280;48480;50.252;18.848;2024-03-02T03:03:20;97945.82;;;8.47;90.06
62436;BME280;48480;50.252;18.848;2024-03-02T03:06:04;97941.92;;;8.45;90.17
62436;BME280;48480;50.252;18.848;2024-03-02T03:08:47;97939.70;;;8.45;90.40
62436;BME280;48480;50.252;18.848;2024-03-02T03:11:31;97947.55;;;8.47;90.32
62436;BME280;48480;50.252;18.848;2024-03-02T03:14:15;97947.59;;;8.49;89.90
62436;BME280;48480;50.252;18.848;2024-03-02T03:16:59;97944.70;;;8.49;89.63
62436;BME280;48480;50.252;18.848;2024-03-02T03:19:43;97948.38;;;8.53;89.73
62436;BME280;48480;50.252;18.848;2024-03-02T03:22:27;97947.10;;;8.55;89.60
62436;BME280;48480;50.252;18.848;2024-03-02T03:25:10;97944.27;;;8.55;89.64
62436;BME280;48480;50.252;18.848;2024-03-02T03:27:54;97943.95;;;8.56;89.58
62436;BME280;48480;50.252;18.848;2024-03-02T03:30:39;97943.56;;;8.57;89.57
62436;BME280;48480;50.252;18.848;2024-03-02T03:33:22;97945.26;;;8.59;89.49
62436;BME280;48480;50.252;18.848;2024-03-02T03:36:06;97947.09;;;8.62;89.45
62436;BME280;48480;50.252;18.848;2024-03-02T03:38:50;97941.86;;;8.65;88.92
62436;BME280;48480;50.252;18.848;2024-03-02T03:41:34;97941.08;;;8.66;88.90
62436;BME280;48480;50.252;18.848;2024-03-02T03:44:18;97942.43;;;8.69;88.95
62436;BME280;48480;50.252;18.848;2024-03-02T03:47:02;97947.21;;;8.68;88.98
62436;BME280;48480;50.252;18.848;2024-03-02T03:49:46;97948.05;;;8.69;89.21
62436;BME280;48480;50.252;18.848;2024-03-02T03:52:30;97946.17;;;8.67;89.18
62436;BME280;48480;50.252;18.848;2024-03-02T03:55:14;97943.88;;;8.66;89.14
62436;BME280;48480;50.252;18.848;2024-03-02T03:57:58;97942.24;;;8.63;89.04
62436;BME280;48480;50.252;18.848;2024-03-02T04:00:42;97943.18;;;8.60;88.99
62436;BME280;48480;50.252;18.848;2024-03-02T04:03:26;97938.44;;;8.62;88.89
62436;BME280;48480;50.252;18.848;2024-03-02T04:06:10;97932.68;;;8.65;88.61
62436;BME280;48480;50.252;18.848;2024-03-02T04:08:54;97935.20;;;8.65;88.35
62436;BME280;48480;50.252;18.848;2024-03-02T04:11:38;97936.05;;;8.57;88.27
62436;BME280;48480;50.252;18.848;2024-03-02T04:14:22;97933.20;;;8.51;88.72
62436;BME280;48480;50.252;18.848;2024-03-02T04:17:06;97932.14;;;8.50;88.83
62436;BME280;48480;50.252;18.848;2024-03-02T04:19:50;97930.58;;;8.51;88.96
62436;BME280;48480;50.252;18.848;2024-03-02T04:22:34;97938.50;;;8.51;88.90
62436;BME280;48480;50.252;18.848;2024-03-02T04:25:19;97938.30;;;8.48;88.76
62436;BME280;48480;50.252;18.848;2024-03-02T04:28:03;97934.91;;;8.49;88.64
62436;BME280;48480;50.252;18.848;2024-03-02T04:30:48;97936.80;;;8.54;88.50
62436;BME280;48480;50.252;18.848;2024-03-02T04:33:32;97944.38;;;8.60;88.59
62436;BME280;48480;50.252;18.848;2024-03-02T04:36:16;97949.10;;;8.63;88.62
62436;BME280;48480;50.252;18.848;2024-03-02T04:39:00;97953.60;;;8.61;88.57
62436;BME280;48480;50.252;18.848;2024-03-02T04:41:44;97949.79;;;8.57;88.55
62436;BME280;48480;50.252;18.848;2024-03-02T04:44:28;97949.82;;;8.51;88.34
62436;BME280;48480;50.252;18.848;2024-03-02T04:47:12;97949.96;;;8.42;88.35
62436;BME280;48480;50.252;18.848;2024-03-02T04:49:56;97946.21;;;8.34;88.53
62436;BME280;48480;50.252;18.848;2024-03-02T04:52:40;97949.15;;;8.35;88.73
62436;BME280;48480;50.252;18.848;2024-03-02T04:55:23;97946.25;;;8.37;88.43
62436;BME280;48480;50.252;18.848;2024-03-02T04:58:23;97943.05;;;8.35;88.34
62436;BME280;48480;50.252;18.848;2024-03-02T05:01:06;97943.71;;;8.33;88.34
62436;BME280;48480;50.252;18.848;2024-03-02T05:03:51;97939.21;;;8.31;88.59
62436;BME280;48480;50.252;18.848;2024-03-02T05:06:34;97941.97;;;8.27;88.64
62436;BME280;48480;50.252;18.848;2024-03-02T05:09:19;97945.92;;;8.20;88.55
62436;BME280;48480;50.252;18.848;2024-03-02T05:12:03;97946.48;;;8.05;88.97
62436;BME280;48480;50.252;18.848;2024-03-02T05:14:53;97965.66;;;8.09;89.43
62436;BME280;48480;50.252;18.848;2024-03-02T05:17:38;97963.92;;;8.08;89.80
62436;BME280;48480;50.252;18.848;2024-03-02T05:20:22;97968.78;;;8.12;89.63
62436;BME280;48480;50.252;18.848;2024-03-02T05:23:06;97972.25;;;8.18;89.25
62436;BME280;48480;50.252;18.848;2024-03-02T05:25:50;97977.98;;;8.21;89.35
62436;BME280;48480;50.252;18.848;2024-03-02T05:28:36;97979.49;;;8.21;89.28
62436;BME280;48480;50.252;18.848;2024-03-02T05:31:20;97977.73;;;8.19;89.51
62436;BME280;48480;50.252;18.848;2024-03-02T05:34:04;97979.76;;;8.15;89.52
62436;BME280;48480;50.252;18.848;2024-03-02T05:36:48;97980.91;;;8.12;89.49
62436;BME280;48480;50.252;18.848;2024-03-02T05:39:32;97982.40;;;8.05;89.45
62436;BME280;48480;50.252;18.848;2024-03-02T05:42:16;97984.23;;;7.98;89.62
62436;BME280;48480;50.252;18.848;2024-03-02T05:45:02;97987.73;;;7.96;89.62
62436;BME280;48480;50.252;18.848;2024-03-02T05:47:46;97989.45;;;7.98;89.55
62436;BME280;48480;50.252;18.848;2024-03-02T05:50:31;97990.41;;;8.03;89.90
62436;BME280;48480;50.252;18.848;2024-03-02T05:53:15;97993.57;;;8.08;90.00
62436;BME280;48480;50.252;18.848;2024-03-02T05:55:59;97994.20;;;8.10;90.02
62436;BME280;48480;50.252;18.848;2024-03-02T05:58:43;97991.86;;;8.14;90.01
62436;BME280;48480;50.252;18.848;2024-03-02T06:01:46;97993.67;;;8.10;89.74
62436;BME280;48480;50.252;18.848;2024-03-02T06:04:30;97996.20;;;8.09;89.87
62436;BME280;48480;50.252;18.848;2024-03-02T06:07:14;97994.90;;;8.14;89.77
62436;BME280;48480;50.252;18.848;2024-03-02T06:09:58;97996.61;;;8.20;89.70
62436;BME280;48480;50.252;18.848;2024-03-02T06:12:42;98002.96;;;8.28;89.53
62436;BME280;48480;50.252;18.848;2024-03-02T06:15:26;98004.22;;;8.29;89.32
62436;BME280;48480;50.252;18.848;2024-03-02T06:18:10;98000.35;;;8.31;89.63
62436;BME280;48480;50.252;18.848;2024-03-02T06:20:54;98003.60;;;8.34;89.45
62436;BME280;48480;50.252;18.848;2024-03-02T06:23:38;98008.37;;;8.33;89.38
62436;BME280;48480;50.252;18.848;2024-03-02T06:26:22;98013.98;;;8.32;89.31
62436;BME280;48480;50.252;18.848;2024-03-02T06:29:06;98014.30;;;8.31;89.06
62436;BME280;48480;50.252;18.848;2024-03-02T06:31:51;98013.14;;;8.30;88.97
62436;BME280;48480;50.252;18.848;2024-03-02T06:34:36;98016.63;;;8.38;89.17
62436;BME280;48480;50.252;18.848;2024-03-02T06:37:20;98014.84;;;8.49;89.00
62436;BME280;48480;50.252;18.848;2024-03-02T06:40:05;98012.48;;;8.59;88.77
62436;BME280;48480;50.252;18.848;2024-03-02T06:42:51;98012.61;;;8.65;88.59
62436;BME280;48480;50.252;18.848;2024-03-02T06:45:35;98017.90;;;8.67;88.32
62436;BME280;48480;50.252;18.848;2024-03-02T06:48:19;98016.61;;;8.67;88.12
62436;BME280;48480;50.252;18.848;2024-03-02T06:51:06;98019.31;;;8.65;88.21
62436;BME280;48480;50.252;18.848;2024-03-02T06:53:50;98015.78;;;8.59;88.05
62436;BME280;48480;50.252;18.848;2024-03-02T06:56:35;98017.04;;;8.56;88.12
62436;BME280;48480;50.252;18.848;2024-03-02T06:59:19;98018.35;;;8.55;88.20
62436;BME280;48480;50.252;18.848;2024-03-02T07:02:03;98021.44;;;8.57;88.23
62436;BME280;48480;50.252;18.848;2024-03-02T07:04:48;98016.29;;;8.62;88.02
62436;BME280;48480;50.252;18.848;2024-03-02T07:07:32;98010.66;;;8.63;87.66
62436;BME280;48480;50.252;18.848;2024-03-02T07:10:17;98012.56;;;8.59;87.45
62436;BME280;48480;50.252;18.848;2024-03-02T07:13:01;98017.53;;;8.55;87.85
62436;BME280;48480;50.252;18.848;2024-03-02T07:15:45;98018.45;;;8.55;88.14
62436;BME280;48480;50.252;18.848;2024-03-02T07:18:55;98024.73;;;8.60;88.36
62436;BME280;48480;50.252;18.848;2024-03-02T07:21:41;98019.59;;;8.61;88.08
62436;BME280;48480;50.252;18.848;2024-03-02T07:24:29;98024.93;;;8.59;88.07
62436;BME280;48480;50.252;18.848;2024-03-02T07:27:13;98025.95;;;8.63;88.64
62436;BME280;48480;50.252;18.848;2024-03-02T07:29:58;98025.64;;;8.73;88.41
62436;BME280;48480;50.252;18.848;2024-03-02T07:32:42;98036.75;;;8.86;88.29
62436;BME280;48480;50.252;18.848;2024-03-02T07:35:29;98035.97;;;8.99;87.94
62436;BME280;48480;50.252;18.848;2024-03-02T07:38:15;98034.96;;;9.09;87.54
62436;BME280;48480;50.252;18.848;2024-03-02T07:40:59;98033.99;;;9.15;86.93
62436;BME280;48480;50.252;18.848;2024-03-02T07:43:44;98037.36;;;9.10;86.66
62436;BME280;48480;50.252;18.848;2024-03-02T07:46:28;98040.58;;;9.10;87.20
62436;BME280;48480;50.252;18.848;2024-03-02T07:49:13;98043.30;;;9.15;87.27
62436;BME280;48480;50.252;18.848;2024-03-02T07:51:58;98041.11;;;9.22;87.07
62436;BME280;48480;50.252;18.848;2024-03-02T07:54:42;98042.92;;;9.30;86.56
62436;BME280;48480;50.252;18.848;2024-03-02T07:57:26;98048.02;;;9.39;86.11
62436;BME280;48480;50.252;18.848;2024-03-02T08:00:10;98049.77;;;9.44;85.84
62436;BME280;48480;50.252;18.848;2024-03-02T08:02:55;98053.73;;;9.46;86.05
62436;BME280;48480;50.252;18.848;2024-03-02T08:05:40;98051.45;;;9.42;85.78
62436;BME280;48480;50.252;18.848;2024-03-02T08:08:24;98046.34;;;9.43;85.85
62436;BME280;48480;50.252;18.848;2024-03-02T08:11:08;98045.51;;;9.48;85.91
62436;BME280;48480;50.252;18.848;2024-03-02T08:13:52;98046.61;;;9.52;85.86
62436;BME280;48480;50.252;18.848;2024-03-02T08:16:40;98047.86;;;9.57;85.85
62436;BME280;48480;50.252;18.848;2024-03-02T08:19:25;98038.77;;;9.63;85.52
62436;BME280;48480;50.252;18.848;2024-03-02T08:22:09;98050.23;;;9.75;85.34
62436;BME280;48480;50.252;18.848;2024-03-02T08:24:54;98051.85;;;9.87;85.26
62436;BME280;48480;50.252;18.848;2024-03-02T08:27:40;98051.20;;;9.95;85.06
62436;BME280;48480;50.252;18.848;2024-03-02T08:30:24;98049.60;;;10.01;84.91
62436;BME280;48480;50.252;18.848;2024-03-02T08:33:08;98046.88;;;10.03;84.73
62436;BME280;48480;50.252;18.848;2024-03-02T08:35:52;98049.42;;;10.02;84.41
62436;BME280;48480;50.252;18.848;2024-03-02T08:38:36;98050.00;;;10.03;84.30
62436;BME280;48480;50.252;18.848;2024-03-02T08:41:20;98048.38;;;10.13;84.33
62436;BME280;48480;50.252;18.848;2024-03-02T08:44:05;98047.81;;;10.20;83.56
62436;BME280;48480;50.252;18.848;2024-03-02T08:46:50;98046.77;;;10.22;83.66
62436;BME280;48480;50.252;18.848;2024-03-02T08:49:35;98046.27;;;10.30;83.62
62436;BME280;48480;50.252;18.848;2024-03-02T08:52:19;98048.20;;;10.38;83.29
62436;BME280;48480;50.252;18.848;2024-03-02T08:55:04;98051.77;;;10.44;83.20
62436;BME280;48480;50.252;18.848;2024-03-02T08:57:48;98055.58;;;10.55;83.27
62436;BME280;48480;50.252;18.848;2024-03-02T09:00:34;98060.27;;;10.70;82.64
62436;BME280;48480;50.252;18.848;2024-03-02T09:03:18;98062.65;;;10.84;82.47
62436;BME280;48480;50.252;18.848;2024-03-02T09:06:03;98064.89;;;11.03;82.19
62436;BME280;48480;50.252;18.848;2024-03-02T09:08:48;98065.85;;;11.23;82.11
62436;BME280;48480;50.252;18.848;2024-03-02T09:11:33;98062.29;;;11.40;81.96
62436;BME280;48480;50.252;18.848;2024-03-02T09:14:18;98066.30;;;11.47;81.17
62436;BME280;48480;50.252;18.848;2024-03-02T09:17:03;98065.13;;;11.51;81.26
62436;BME280;48480;50.252;18.848;2024-03-02T09:19:47;98064.80;;;11.55;81.31
62436;BME280;48480;50.252;18.848;2024-03-02T09:22:31;98071.27;;;11.56;80.57
62436;BME280;48480;50.252;18.848;2024-03-02T09:25:16;98067.88;;;11.53;80.28
62436;BME280;48480;50.252;18.848;2024-03-02T09:28:00;98070.50;;;11.51;80.07
62436;BME280;48480;50.252;18.848;2024-03-02T09:30:44;98069.16;;;11.50;79.50
62436;BME280;48480;50.252;18.848;2024-03-02T09:33:28;98069.66;;;11.45;79.59
62436;BME280;48480;50.252;18.848;2024-03-02T09:36:19;98067.05;;;11.47;79.99
62436;BME280;48480;50.252;18.848;2024-03-02T09:39:03;98054.27;;;11.45;80.25
62436;BME280;48480;50.252;18.848;2024-03-02T09:41:48;98057.91;;;11.60;80.01
62436;BME280;48480;50.252;18.848;2024-03-02T09:44:33;98069.56;;;11.74;79.77
62436;BME280;48480;50.252;18.848;2024-03-02T09:47:17;98072.16;;;11.80;79.70
62436;BME280;48480;50.252;18.848;2024-03-02T09:50:02;98071.73;;;11.87;79.71
62436;BME280;48480;50.252;18.848;2024-03-02T09:52:49;98071.54;;;11.99;79.40
62436;BME280;48480;50.252;18.848;2024-03-02T09:55:36;98077.55;;;12.07;78.54
62436;BME280;48480;50.252;18.848;2024-03-02T09:58:20;98076.59;;;12.08;78.45
62436;BME280;48480;50.252;18.848;2024-03-02T10:01:08;98075.98;;;12.08;78.49
62436;BME280;48480;50.252;18.848;2024-03-02T10:03:54;98076.25;;;12.02;78.38
62436;BME280;48480;50.252;18.848;2024-03-02T10:06:40;98074.52;;;12.01;78.85
62436;BME280;48480;50.252;18.848;2024-03-02T10:09:27;98072.00;;;12.06;79.43
62436;BME280;48480;50.252;18.848;2024-03-02T10:12:14;98073.59;;;12.11;79.17
62436;BME280;48480;50.252;18.848;2024-03-02T10:15:07;98073.34;;;12.21;78.94
62436;BME280;48480;50.252;18.848;2024-03-02T10:17:53;98074.41;;;12.31;78.19
62436;BME280;48480;50.252;18.848;2024-03-02T10:20:38;98076.02;;;12.31;77.99
62436;BME280;48480;50.252;18.848;2024-03-02T10:23:23;98074.88;;;12.24;77.95
62436;BME280;48480;50.252;18.848;2024-03-02T10:26:17;98071.58;;;12.21;78.58
62436;BME280;48480;50.252;18.848;2024-03-02T10:29:04;98068.95;;;12.26;79.05
62436;BME280;48480;50.252;18.848;2024-03-02T10:31:48;98070.70;;;12.35;79.38
62436;BME280;48480;50.252;18.848;2024-03-02T10:34:40;98067.30;;;12.42;78.67
62436;BME280;48480;50.252;18.848;2024-03-02T10:40:06;98073.05;;;12.50;78.09
62436;BME280;48480;50.252;18.848;2024-03-02T10:42:52;98070.45;;;12.47;77.21
62436;BME280;48480;50.252;18.848;2024-03-02T10:45:36;98075.77;;;12.40;77.52
62436;BME280;48480;50.252;18.848;2024-03-02T10:48:20;98079.48;;;12.39;77.76
62436;BME280;48480;50.252;18.848;2024-03-02T10:51:05;98085.56;;;12.39;77.92
62436;BME280;48480;50.252;18.848;2024-03-02T10:53:49;98087.63;;;12.41;78.09
62436;BME280;48480;50.252;18.848;2024-03-02T10:56:41;98078.20;;;12.38;77.93
62436;BME280;48480;50.252;18.848;2024-03-02T11:02:16;98086.26;;;12.46;77.33
62436;BME280;48480;50.252;18.848;2024-03-02T11:05:04;98086.90;;;12.45;76.82
62436;BME280;48480;50.252;18.848;2024-03-02T11:10:54;98091.10;;;12.41;76.30
62436;BME280;48480;50.252;18.848;2024-03-02T11:13:48;98088.71;;;12.39;76.29
62436;BME280;48480;50.252;18.848;2024-03-02T11:16:37;98083.40;;;12.34;76.63
62436;BME280;48480;50.252;18.848;2024-03-02T11:19:22;98085.38;;;12.35;77.03
62436;BME280;48480;50.252;18.848;2024-03-02T11:22:08;98085.58;;;12.37;76.83
62436;BME280;48480;50.252;18.848;2024-03-02T11:24:53;98083.23;;;12.31;76.59
62436;BME280;48480;50.252;18.848;2024-03-02T11:33:23;98075.71;;;12.24;76.83
62436;BME280;48480;50.252;18.848;2024-03-02T11:36:08;98074.59;;;12.22;76.58
62436;BME280;48480;50.252;18.848;2024-03-02T11:38:52;98075.45;;;12.25;76.12
62436;BME280;48480;50.252;18.848;2024-03-02T11:41:38;98075.70;;;12.30;75.95
62436;BME280;48480;50.252;18.848;2024-03-02T11:44:27;98074.89;;;12.34;75.35
62436;BME280;48480;50.252;18.848;2024-03-02T11:47:16;98072.29;;;12.34;75.20
62436;BME280;48480;50.252;18.848;2024-03-02T11:50:01;98074.54;;;12.33;74.80
62436;BME280;48480;50.252;18.848;2024-03-02T11:52:45;98071.34;;;12.29;74.74
62436;BME280;48480;50.252;18.848;2024-03-02T11:55:31;98070.85;;;12.23;74.50
62436;BME280;48480;50.252;18.848;2024-03-02T11:58:16;98068.83;;;12.15;74.84
62436;BME280;48480;50.252;18.848;2024-03-02T12:01:01;98062.51;;;12.15;75.18
62436;BME280;48480;50.252;18.848;2024-03-02T12:03:46;98061.77;;;12.18;75.43
62436;BME280;48480;50.252;18.848;2024-03-02T12:06:33;98061.89;;;12.22;75.43
62436;BME280;48480;50.252;18.848;2024-03-02T12:09:18;98061.38;;;12.25;75.45
62436;BME280;48480;50.252;18.848;2024-03-02T12:14:52;98065.66;;;12.38;75.45
62436;BME280;48480;50.252;18.848;2024-03-02T12:17:45;98061.80;;;12.51;75.50
62436;BME280;48480;50.252;18.848;2024-03-02T12:20:33;98062.11;;;12.56;75.63
62436;BME280;48480;50.252;18.848;2024-03-02T12:23:20;98063.33;;;12.58;75.70
62436;BME280;48480;50.252;18.848;2024-03-02T12:26:05;98063.14;;;12.57;75.86
62436;BME280;48480;50.252;18.848;2024-03-02T12:28:50;98060.67;;;12.57;76.07
62436;BME280;48480;50.252;18.848;2024-03-02T12:31:36;98059.27;;;12.58;76.44
62436;BME280;48480;50.252;18.848;2024-03-02T12:34:22;98059.68;;;12.59;76.88
62436;BME280;48480;50.252;18.848;2024-03-02T12:37:05;98059.94;;;12.60;76.86
62436;BME280;48480;50.252;18.848;2024-03-02T12:39:49;98063.39;;;12.60;76.63
62436;BME280;48480;50.252;18.848;2024-03-02T12:42:33;98062.15;;;12.60;77.18
62436;BME280;48480;50.252;18.848;2024-03-02T12:45:21;98056.97;;;12.54;77.33
62436;BME280;48480;50.252;18.848;2024-03-02T12:48:09;98063.16;;;12.60;77.68
62436;BME280;48480;50.252;18.848;2024-03-02T12:50:57;98062.42;;;12.63;77.86
62436;BME280;48480;50.252;18.848;2024-03-02T12:53:42;98062.73;;;12.66;78.38
62436;BME280;48480;50.252;18.848;2024-03-02T12:56:28;98063.55;;;12.68;79.19
62436;BME280;48480;50.252;18.848;2024-03-02T13:04:53;98061.52;;;12.62;80.29
62436;BME280;48480;50.252;18.848;2024-03-02T13:07:40;98062.20;;;12.59;80.86
62436;BME280;48480;50.252;18.848;2024-03-02T13:10:27;98060.95;;;12.56;80.62
62436;BME280;48480;50.252;18.848;2024-03-02T13:13:11;98056.77;;;12.52;81.41
62436;BME280;48480;50.252;18.848;2024-03-02T13:15:56;98054.32;;;12.50;81.89
62436;BME280;48480;50.252;18.848;2024-03-02T13:18:40;98049.14;;;12.41;81.96
62436;BME280;48480;50.252;18.848;2024-03-02T13:21:24;98054.59;;;12.41;82.11
62436;BME280;48480;50.252;18.848;2024-03-02T13:24:08;98051.96;;;12.36;82.53
62436;BME280;48480;50.252;18.848;2024-03-02T13:26:53;98048.30;;;12.29;82.97
62436;BME280;48480;50.252;18.848;2024-03-02T13:29:39;98047.75;;;12.24;83.54
62436;BME280;48480;50.252;18.848;2024-03-02T13:32:24;98048.29;;;12.19;83.96
62436;BME280;48480;50.252;18.848;2024-03-02T13:35:09;98045.92;;;12.13;84.39
62436;BME280;48480;50.252;18.848;2024-03-02T13:37:55;98043.16;;;12.10;84.76
62436;BME280;48480;50.252;18.848;2024-03-02T13:40:39;98041.79;;;12.10;85.29
62436;BME280;48480;50.252;18.848;2024-03-02T13:43:25;98042.88;;;12.11;85.65
62436;BME280;48480;50.252;18.848;2024-03-02T13:48:45;98030.02;;;11.91;86.01
62436;BME280;48480;50.252;18.848;2024-03-02T13:51:30;98048.59;;;11.93;86.37
62436;BME280;48480;50.252;18.848;2024-03-02T13:54:13;98050.48;;;11.88;87.05
62436;BME280;48480;50.252;18.848;2024-03-02T13:57:01;98050.70;;;11.90;87.11
62436;BME280;48480;50.252;18.848;2024-03-02T13:59:46;98050.80;;;11.90;87.07
62436;BME280;48480;50.252;18.848;2024-03-02T14:02:31;98049.67;;;11.93;86.99
62436;BME280;48480;50.252;18.848;2024-03-02T14:05:15;98049.17;;;11.97;86.98
62436;BME280;48480;50.252;18.848;2024-03-02T14:08:00;98049.38;;;11.98;86.81
62436;BME280;48480;50.252;18.848;2024-03-02T14:10:44;98049.42;;;11.99;87.24
62436;BME280;48480;50.252;18.848;2024-03-02T14:13:28;98051.49;;;11.99;87.62
62436;BME280;48480;50.252;18.848;2024-03-02T14:16:13;98046.61;;;11.98;87.61
62436;BME280;48480;50.252;18.848;2024-03-02T14:18:57;98044.58;;;11.99;88.03
62436;BME280;48480;50.252;18.848;2024-03-02T14:21:42;98040.95;;;12.03;88.38
62436;BME280;48480;50.252;18.848;2024-03-02T14:24:26;98040.69;;;12.10;88.61
62436;BME280;48480;50.252;18.848;2024-03-02T14:27:12;98038.90;;;12.14;88.69
62436;BME280;48480;50.252;18.848;2024-03-02T14:29:58;98042.13;;;12.16;88.55
62436;BME280;48480;50.252;18.848;2024-03-02T14:32:42;98040.17;;;12.17;88.72
62436;BME280;48480;50.252;18.848;2024-03-02T14:35:26;98041.14;;;12.19;88.64
62436;BME280;48480;50.252;18.848;2024-03-02T14:38:12;98038.56;;;12.17;88.83
62436;BME280;48480;50.252;18.848;2024-03-02T14:40:57;98039.11;;;12.15;88.89
62436;BME280;48480;50.252;18.848;2024-03-02T14:43:41;98036.49;;;12.15;88.91
62436;BME280;48480;50.252;18.848;2024-03-02T14:46:25;98032.67;;;12.18;88.85
62436;BME280;48480;50.252;18.848;2024-03-02T14:49:10;98032.70;;;12.21;89.06
62436;BME280;48480;50.252;18.848;2024-03-02T14:51:58;98027.49;;;12.22;89.03
62436;BME280;48480;50.252;18.848;2024-03-02T14:54:42;98024.06;;;12.21;89.43
62436;BME280;48480;50.252;18.848;2024-03-02T14:57:26;98024.45;;;12.21;89.38
62436;BME280;48480;50.252;18.848;2024-03-02T15:00:10;98020.77;;;12.18;89.49